sensor_id;sensor_type;location;lat;lon;timestamp;temperature;humidity
4596;DHT22;2310;49.978;8.742;2022-09-30T00:01:27;10.20;99.90
4596;DHT22;2310;49.978;8.742;2022-09-30T00:05:29;10.20;99.90
4596;DHT22;2310;49.978;8.742;2022-09-30T00:09:30;10.20;99.90
4596;DHT22;2310;49.978;8.742;2022-09-30T00:13:35;10.20;99.90
4596;DHT22;2310;49.978;8.742;2022-09-30T00:17:36;10.30;99.90
4596;DHT22;2310;49.978;8.742;2022-09-30T00:21:38;10.20;99.90
4596;DHT22;2310;49.978;8.742;2022-09-30T00:25:39;10.10;99.90
4596;DHT22;2310;49.978;8.742;2022-09-30T00:29:40;10.10;99.90
4596;DHT22;2310;49.978;8.742;2022-09-30T00:33:42;10.20;99.90
4596;DHT22;2310;49.978;8.742;2022-09-30T00:37:43;10.20;99.90
4596;DHT22;2310;49.978;8.742;2022-09-30T00:41:47;10.10;99.90
4596;DHT22;2310;49.978;8.742;2022-09-30T00:45:51;10.00;99.90
4596;DHT22;2310;49.978;8.742;2022-09-30T00:49:55;9.90;99.90
4596;DHT22;2310;49.978;8.742;2022-09-30T00:54:00;10.00;99.90
4596;DHT22;2310;49.978;8.742;2022-09-30T00:58:04;9.90;99.90
4596;DHT22;2310;49.978;8.742;2022-09-30T01:02:06;9.90;99.90
4596;DHT22;2310;49.978;8.742;2022-09-30T01:06:10;9.80;99.90
4596;DHT22;2310;49.978;8.742;2022-09-30T01:10:11;9.80;99.90
4596;DHT22;2310;49.978;8.742;2022-09-30T01:14:19;9.80;99.90
4596;DHT22;2310;49.978;8.742;2022-09-30T01:18:45;9.80;99.90
4596;DHT22;2310;49.978;8.742;2022-09-30T01:35:55;9.80;99.90
4596;DHT22;2310;49.978;8.742;2022-09-30T01:52:50;9.70;99.90
4596;DHT22;2310;49.978;8.742;2022-09-30T01:56:54;9.60;99.90
4596;DHT22;2310;49.978;8.742;2022-09-30T02:00:58;9.50;99.90
4596;DHT22;2310;49.978;8.742;2022-09-30T02:09:15;9.60;99.90
4596;DHT22;2310;49.978;8.742;2022-09-30T02:13:20;9.40;99.90
4596;DHT22;2310;49.978;8.742;2022-09-30T02:17:25;9.30;99.90
4596;DHT22;2310;49.978;8.742;2022-09-30T02:21:30;9.40;99.90
4596;DHT22;2310;49.978;8.742;2022-09-30T02:25:38;9.30;99.90
4596;DHT22;2310;49.978;8.742;2022-09-30T02:29:42;9.20;99.90
4596;DHT22;2310;49.978;8.742;2022-09-30T02:34:20;9.10;99.90
4596;DHT22;2310;49.978;8.742;2022-09-30T02:38:25;9.00;99.90
4596;DHT22;2310;49.978;8.742;2022-09-30T02:42:28;9.10;99.90
4596;DHT22;2310;49.978;8.742;2022-09-30T02:46:35;9.10;99.90
4596;DHT22;2310;49.978;8.742;2022-09-30T02:50:48;9.10;99.90
4596;DHT22;2310;49.978;8.742;2022-09-30T02:55:08;9.30;99.90
4596;DHT22;2310;49.978;8.742;2022-09-30T02:59:07;9.20;99.90
4596;DHT22;2310;49.978;8.742;2022-09-30T03:03:11;9.20;99.90
4596;DHT22;2310;49.978;8.742;2022-09-30T03:07:13;9.00;99.90
4596;DHT22;2310;49.978;8.742;2022-09-30T03:11:24;9.20;99.90
4596;DHT22;2310;49.978;8.742;2022-09-30T03:24:35;8.90;99.90
4596;DHT22;2310;49.978;8.742;2022-09-30T03:28:46;9.10;99.90
4596;DHT22;2310;49.978;8.742;2022-09-30T03:45:42;8.80;99.90
4596;DHT22;2310;49.978;8.742;2022-09-30T03:49:48;8.70;99.90
4596;DHT22;2310;49.978;8.742;2022-09-30T03:53:50;8.70;99.90
4596;DHT22;2310;49.978;8.742;2022-09-30T03:57:53;8.90;99.90
4596;DHT22;2310;49.978;8.742;2022-09-30T04:01:54;8.90;99.90
4596;DHT22;2310;49.978;8.742;2022-09-30T04:05:57;9.00;99.90
4596;DHT22;2310;49.978;8.742;2022-09-30T04:09:58;8.80;99.90
4596;DHT22;2310;49.978;8.742;2022-09-30T04:13:59;8.80;99.90
4596;DHT22;2310;49.978;8.742;2022-09-30T04:18:02;8.60;99.90
4596;DHT22;2310;49.978;8.742;2022-09-30T04:22:04;8.40;99.90
4596;DHT22;2310;49.978;8.742;2022-09-30T04:26:07;8.30;99.90
4596;DHT22;2310;49.978;8.742;2022-09-30T04:30:10;8.30;99.90
4596;DHT22;2310;49.978;8.742;2022-09-30T04:34:11;8.30;99.90
4596;DHT22;2310;49.978;8.742;2022-09-30T04:38:12;8.40;99.90
4596;DHT22;2310;49.978;8.742;2022-09-30T04:42:13;8.40;99.90
4596;DHT22;2310;49.978;8.742;2022-09-30T04:46:19;8.40;99.90
4596;DHT22;2310;49.978;8.742;2022-09-30T04:50:21;8.40;99.90
4596;DHT22;2310;49.978;8.742;2022-09-30T04:54:22;8.40;99.90
4596;DHT22;2310;49.978;8.742;2022-09-30T04:58:25;8.40;99.90
4596;DHT22;2310;49.978;8.742;2022-09-30T05:02:27;8.30;99.90
4596;DHT22;2310;49.978;8.742;2022-09-30T05:06:28;8.30;99.90
4596;DHT22;2310;49.978;8.742;2022-09-30T05:10:29;8.30;99.90
4596;DHT22;2310;49.978;8.742;2022-09-30T05:14:31;8.30;99.90
4596;DHT22;2310;49.978;8.742;2022-09-30T05:18:33;8.30;99.90
4596;DHT22;2310;49.978;8.742;2022-09-30T05:22:35;8.30;99.90
4596;DHT22;2310;49.978;8.742;2022-09-30T05:26:37;8.20;99.90
4596;DHT22;2310;49.978;8.742;2022-09-30T05:30:40;8.30;99.90
4596;DHT22;2310;49.978;8.742;2022-09-30T05:34:45;8.30;99.90
4596;DHT22;2310;49.978;8.742;2022-09-30T05:38:49;8.10;99.90
4596;DHT22;2310;49.978;8.742;2022-09-30T05:42:51;8.00;99.90
4596;DHT22;2310;49.978;8.742;2022-09-30T05:46:52;8.00;99.90
4596;DHT22;2310;49.978;8.742;2022-09-30T05:50:54;8.00;99.90
4596;DHT22;2310;49.978;8.742;2022-09-30T05:54:56;8.00;99.90
4596;DHT22;2310;49.978;8.742;2022-09-30T05:58:59;8.10;99.90
4596;DHT22;2310;49.978;8.742;2022-09-30T06:03:01;8.10;99.90
4596;DHT22;2310;49.978;8.742;2022-09-30T06:07:02;8.20;99.90
4596;DHT22;2310;49.978;8.742;2022-09-30T06:11:10;8.30;99.90
4596;DHT22;2310;49.978;8.742;2022-09-30T06:15:11;8.30;99.90
4596;DHT22;2310;49.978;8.742;2022-09-30T06:19:13;8.40;99.90
4596;DHT22;2310;49.978;8.742;2022-09-30T06:23:14;8.40;99.90
4596;DHT22;2310;49.978;8.742;2022-09-30T06:27:15;8.60;99.90
4596;DHT22;2310;49.978;8.742;2022-09-30T06:31:16;8.60;99.90
4596;DHT22;2310;49.978;8.742;2022-09-30T06:35:18;8.50;99.90
4596;DHT22;2310;49.978;8.742;2022-09-30T06:39:20;8.40;99.90
4596;DHT22;2310;49.978;8.742;2022-09-30T06:43:21;8.50;99.90
4596;DHT22;2310;49.978;8.742;2022-09-30T06:47:22;8.60;99.90
4596;DHT22;2310;49.978;8.742;2022-09-30T06:51:25;9.00;99.90
4596;DHT22;2310;49.978;8.742;2022-09-30T06:55:29;9.00;99.90
4596;DHT22;2310;49.978;8.742;2022-09-30T06:59:30;9.30;99.90
4596;DHT22;2310;49.978;8.742;2022-09-30T07:03:33;9.50;99.90
4596;DHT22;2310;49.978;8.742;2022-09-30T07:07:35;9.60;99.90
4596;DHT22;2310;49.978;8.742;2022-09-30T07:11:37;9.80;99.90
4596;DHT22;2310;49.978;8.742;2022-09-30T07:15:40;9.90;99.90
4596;DHT22;2310;49.978;8.742;2022-09-30T07:19:42;10.00;99.90
4596;DHT22;2310;49.978;8.742;2022-09-30T07:23:44;9.90;99.90
4596;DHT22;2310;49.978;8.742;2022-09-30T07:27:49;9.80;99.90
4596;DHT22;2310;49.978;8.742;2022-09-30T07:31:50;10.00;99.90
4596;DHT22;2310;49.978;8.742;2022-09-30T07:35:53;10.20;99.90
4596;DHT22;2310;49.978;8.742;2022-09-30T07:39:54;10.10;99.90
4596;DHT22;2310;49.978;8.742;2022-09-30T07:43:56;10.20;99.90
4596;DHT22;2310;49.978;8.742;2022-09-30T07:47:59;9.70;99.90
4596;DHT22;2310;49.978;8.742;2022-09-30T07:52:01;9.60;99.90
4596;DHT22;2310;49.978;8.742;2022-09-30T07:56:04;9.90;99.90
4596;DHT22;2310;49.978;8.742;2022-09-30T08:00:07;9.60;99.90
4596;DHT22;2310;49.978;8.742;2022-09-30T08:04:11;9.60;99.90
4596;DHT22;2310;49.978;8.742;2022-09-30T08:08:13;10.00;99.90
4596;DHT22;2310;49.978;8.742;2022-09-30T08:12:14;10.20;99.90
4596;DHT22;2310;49.978;8.742;2022-09-30T08:16:16;10.30;99.90
4596;DHT22;2310;49.978;8.742;2022-09-30T08:20:17;10.40;99.90
4596;DHT22;2310;49.978;8.742;2022-09-30T08:24:20;10.60;99.90
4596;DHT22;2310;49.978;8.742;2022-09-30T08:28:22;11.80;99.90
4596;DHT22;2310;49.978;8.742;2022-09-30T08:32:24;12.70;99.90
4596;DHT22;2310;49.978;8.742;2022-09-30T08:36:26;13.10;99.90
4596;DHT22;2310;49.978;8.742;2022-09-30T08:40:30;13.60;99.90
4596;DHT22;2310;49.978;8.742;2022-09-30T08:44:41;14.60;99.90
4596;DHT22;2310;49.978;8.742;2022-09-30T08:53:32;15.60;99.90
4596;DHT22;2310;49.978;8.742;2022-09-30T08:57:38;16.00;99.90
4596;DHT22;2310;49.978;8.742;2022-09-30T09:01:45;16.50;99.90
4596;DHT22;2310;49.978;8.742;2022-09-30T09:05:54;16.40;99.90
4596;DHT22;2310;49.978;8.742;2022-09-30T09:10:28;16.50;99.90
4596;DHT22;2310;49.978;8.742;2022-09-30T09:14:53;16.10;99.90
4596;DHT22;2310;49.978;8.742;2022-09-30T09:19:10;16.00;99.90
4596;DHT22;2310;49.978;8.742;2022-09-30T09:23:12;16.40;99.90
4596;DHT22;2310;49.978;8.742;2022-09-30T09:31:53;17.40;99.90
4596;DHT22;2310;49.978;8.742;2022-09-30T09:36:04;17.70;99.90
4596;DHT22;2310;49.978;8.742;2022-09-30T09:40:55;18.30;99.90
4596;DHT22;2310;49.978;8.742;2022-09-30T09:44:31;18.70;99.90
4596;DHT22;2310;49.978;8.742;2022-09-30T09:48:33;18.20;99.90
4596;DHT22;2310;49.978;8.742;2022-09-30T09:56:44;19.10;99.90
4596;DHT22;2310;49.978;8.742;2022-09-30T10:00:46;19.30;99.90
4596;DHT22;2310;49.978;8.742;2022-09-30T10:04:49;19.60;99.90
4596;DHT22;2310;49.978;8.742;2022-09-30T10:08:55;19.80;99.90
4596;DHT22;2310;49.978;8.742;2022-09-30T10:12:56;20.20;99.90
4596;DHT22;2310;49.978;8.742;2022-09-30T10:16:59;20.70;97.70
4596;DHT22;2310;49.978;8.742;2022-09-30T10:21:06;20.70;92.40
4596;DHT22;2310;49.978;8.742;2022-09-30T10:25:24;20.00;96.50
4596;DHT22;2310;49.978;8.742;2022-09-30T10:29:29;20.00;97.10
4596;DHT22;2310;49.978;8.742;2022-09-30T10:33:40;19.50;95.50
4596;DHT22;2310;49.978;8.742;2022-09-30T10:37:51;19.60;99.90
4596;DHT22;2310;49.978;8.742;2022-09-30T10:42:15;19.70;99.90
4596;DHT22;2310;49.978;8.742;2022-09-30T10:46:22;19.50;99.90
4596;DHT22;2310;49.978;8.742;2022-09-30T10:50:26;20.40;94.10
4596;DHT22;2310;49.978;8.742;2022-09-30T10:54:54;20.30;92.50
4596;DHT22;2310;49.978;8.742;2022-09-30T10:58:57;20.50;92.40
4596;DHT22;2310;49.978;8.742;2022-09-30T11:03:10;20.60;91.30
4596;DHT22;2310;49.978;8.742;2022-09-30T11:07:28;21.00;93.00
4596;DHT22;2310;49.978;8.742;2022-09-30T11:11:38;20.60;92.10
4596;DHT22;2310;49.978;8.742;2022-09-30T11:20:13;21.00;66.00
4596;DHT22;2310;49.978;8.742;2022-09-30T11:24:19;21.00;72.00
4596;DHT22;2310;49.978;8.742;2022-09-30T11:41:08;21.50;70.30
4596;DHT22;2310;49.978;8.742;2022-09-30T11:45:17;21.50;72.20
4596;DHT22;2310;49.978;8.742;2022-09-30T11:49:36;20.50;74.10
4596;DHT22;2310;49.978;8.742;2022-09-30T11:57:57;21.40;71.10
4596;DHT22;2310;49.978;8.742;2022-09-30T12:02:00;21.40;68.10
4596;DHT22;2310;49.978;8.742;2022-09-30T12:06:13;21.50;73.60
4596;DHT22;2310;49.978;8.742;2022-09-30T12:10:20;21.80;79.30
4596;DHT22;2310;49.978;8.742;2022-09-30T12:14:29;22.60;70.20
4596;DHT22;2310;49.978;8.742;2022-09-30T12:18:31;22.40;68.00
4596;DHT22;2310;49.978;8.742;2022-09-30T12:22:36;22.40;70.80
4596;DHT22;2310;49.978;8.742;2022-09-30T12:26:39;22.20;69.40
4596;DHT22;2310;49.978;8.742;2022-09-30T12:30:41;22.40;68.60
4596;DHT22;2310;49.978;8.742;2022-09-30T12:35:01;21.70;73.20
4596;DHT22;2310;49.978;8.742;2022-09-30T12:47:51;21.80;71.60
4596;DHT22;2310;49.978;8.742;2022-09-30T12:51:57;22.20;73.10
4596;DHT22;2310;49.978;8.742;2022-09-30T12:56:07;22.40;69.40
4596;DHT22;2310;49.978;8.742;2022-09-30T13:00:21;22.10;69.70
4596;DHT22;2310;49.978;8.742;2022-09-30T13:04:34;21.80;71.00
4596;DHT22;2310;49.978;8.742;2022-09-30T13:08:42;21.70;74.10
4596;DHT22;2310;49.978;8.742;2022-09-30T13:12:44;21.80;69.70
4596;DHT22;2310;49.978;8.742;2022-09-30T13:21:18;21.60;76.00
4596;DHT22;2310;49.978;8.742;2022-09-30T13:25:21;21.70;71.90
4596;DHT22;2310;49.978;8.742;2022-09-30T13:33:39;21.80;67.40
4596;DHT22;2310;49.978;8.742;2022-09-30T13:37:36;21.70;66.00
4596;DHT22;2310;49.978;8.742;2022-09-30T13:41:38;21.10;69.20
4596;DHT22;2310;49.978;8.742;2022-09-30T13:45:41;20.60;69.30
4596;DHT22;2310;49.978;8.742;2022-09-30T13:54:32;21.00;68.90
4596;DHT22;2310;49.978;8.742;2022-09-30T13:58:49;21.20;68.40
4596;DHT22;2310;49.978;8.742;2022-09-30T14:19:55;20.40;72.10
4596;DHT22;2310;49.978;8.742;2022-09-30T14:24:01;20.60;70.20
4596;DHT22;2310;49.978;8.742;2022-09-30T14:28:10;20.10;70.30
4596;DHT22;2310;49.978;8.742;2022-09-30T14:32:16;20.50;72.30
4596;DHT22;2310;49.978;8.742;2022-09-30T14:36:20;20.40;69.70
4596;DHT22;2310;49.978;8.742;2022-09-30T14:40:31;20.00;70.10
4596;DHT22;2310;49.978;8.742;2022-09-30T14:44:32;20.00;74.10
4596;DHT22;2310;49.978;8.742;2022-09-30T14:48:36;20.20;74.90
4596;DHT22;2310;49.978;8.742;2022-09-30T14:52:43;20.30;72.00
4596;DHT22;2310;49.978;8.742;2022-09-30T14:56:45;20.30;71.70
4596;DHT22;2310;49.978;8.742;2022-09-30T15:00:49;20.20;73.30
4596;DHT22;2310;49.978;8.742;2022-09-30T15:04:53;20.10;75.50
4596;DHT22;2310;49.978;8.742;2022-09-30T15:09:03;19.90;72.90
4596;DHT22;2310;49.978;8.742;2022-09-30T15:13:07;19.80;74.10
4596;DHT22;2310;49.978;8.742;2022-09-30T15:17:18;20.00;73.80
4596;DHT22;2310;49.978;8.742;2022-09-30T15:21:21;19.80;75.70
4596;DHT22;2310;49.978;8.742;2022-09-30T15:25:23;19.30;80.40
4596;DHT22;2310;49.978;8.742;2022-09-30T15:29:25;19.50;80.80
4596;DHT22;2310;49.978;8.742;2022-09-30T15:33:27;19.60;82.60
4596;DHT22;2310;49.978;8.742;2022-09-30T15:37:31;19.40;82.60
4596;DHT22;2310;49.978;8.742;2022-09-30T15:41:39;19.30;83.30
4596;DHT22;2310;49.978;8.742;2022-09-30T15:45:42;19.20;83.00
4596;DHT22;2310;49.978;8.742;2022-09-30T15:49:46;18.80;89.10
4596;DHT22;2310;49.978;8.742;2022-09-30T15:53:50;18.70;90.10
4596;DHT22;2310;49.978;8.742;2022-09-30T15:57:54;18.70;90.70
4596;DHT22;2310;49.978;8.742;2022-09-30T16:01:55;18.60;91.80
4596;DHT22;2310;49.978;8.742;2022-09-30T16:06:09;19.10;90.60
4596;DHT22;2310;49.978;8.742;2022-09-30T16:10:17;19.20;89.30
4596;DHT22;2310;49.978;8.742;2022-09-30T16:14:24;19.00;91.50
4596;DHT22;2310;49.978;8.742;2022-09-30T16:18:29;18.80;92.20
4596;DHT22;2310;49.978;8.742;2022-09-30T16:26:43;18.60;95.20
4596;DHT22;2310;49.978;8.742;2022-09-30T16:30:49;18.20;99.00
4596;DHT22;2310;49.978;8.742;2022-09-30T16:34:52;17.90;99.90
4596;DHT22;2310;49.978;8.742;2022-09-30T16:38:53;17.80;99.90
4596;DHT22;2310;49.978;8.742;2022-09-30T16:42:55;18.00;99.90
4596;DHT22;2310;49.978;8.742;2022-09-30T16:46:58;17.80;99.90
4596;DHT22;2310;49.978;8.742;2022-09-30T16:51:12;17.90;99.90
4596;DHT22;2310;49.978;8.742;2022-09-30T16:55:14;17.90;99.90
4596;DHT22;2310;49.978;8.742;2022-09-30T16:59:16;17.60;99.90
4596;DHT22;2310;49.978;8.742;2022-09-30T17:07:34;17.50;99.90
4596;DHT22;2310;49.978;8.742;2022-09-30T17:11:35;17.40;99.90
4596;DHT22;2310;49.978;8.742;2022-09-30T17:15:37;17.20;99.90
4596;DHT22;2310;49.978;8.742;2022-09-30T17:19:39;17.10;99.90
4596;DHT22;2310;49.978;8.742;2022-09-30T17:23:40;17.00;99.90
4596;DHT22;2310;49.978;8.742;2022-09-30T17:27:41;16.80;99.90
4596;DHT22;2310;49.978;8.742;2022-09-30T17:31:42;16.60;99.90
4596;DHT22;2310;49.978;8.742;2022-09-30T17:35:43;16.50;99.90
4596;DHT22;2310;49.978;8.742;2022-09-30T17:39:45;16.50;99.90
4596;DHT22;2310;49.978;8.742;2022-09-30T17:43:46;16.40;99.90
4596;DHT22;2310;49.978;8.742;2022-09-30T17:47:47;16.20;99.90
4596;DHT22;2310;49.978;8.742;2022-09-30T17:51:48;16.00;99.90
4596;DHT22;2310;49.978;8.742;2022-09-30T17:56:01;15.90;99.90
4596;DHT22;2310;49.978;8.742;2022-09-30T18:00:02;15.70;99.90
4596;DHT22;2310;49.978;8.742;2022-09-30T18:04:03;15.50;99.90
4596;DHT22;2310;49.978;8.742;2022-09-30T18:08:05;15.40;99.90
4596;DHT22;2310;49.978;8.742;2022-09-30T18:12:06;15.30;99.90
4596;DHT22;2310;49.978;8.742;2022-09-30T18:16:07;15.10;99.90
4596;DHT22;2310;49.978;8.742;2022-09-30T18:20:09;15.00;99.90
4596;DHT22;2310;49.978;8.742;2022-09-30T18:24:11;14.80;99.90
4596;DHT22;2310;49.978;8.742;2022-09-30T18:28:12;14.80;99.90
4596;DHT22;2310;49.978;8.742;2022-09-30T18:32:14;14.60;99.90
4596;DHT22;2310;49.978;8.742;2022-09-30T18:36:17;14.50;99.90
4596;DHT22;2310;49.978;8.742;2022-09-30T18:40:20;14.40;99.90
4596;DHT22;2310;49.978;8.742;2022-09-30T18:44:24;14.30;99.90
4596;DHT22;2310;49.978;8.742;2022-09-30T18:48:25;14.30;99.90
4596;DHT22;2310;49.978;8.742;2022-09-30T18:52:27;14.20;99.90
4596;DHT22;2310;49.978;8.742;2022-09-30T18:56:29;14.20;99.90
4596;DHT22;2310;49.978;8.742;2022-09-30T19:00:31;14.10;99.90
4596;DHT22;2310;49.978;8.742;2022-09-30T19:04:33;14.10;99.90
4596;DHT22;2310;49.978;8.742;2022-09-30T19:08:35;14.10;99.90
4596;DHT22;2310;49.978;8.742;2022-09-30T19:12:37;14.10;99.90
4596;DHT22;2310;49.978;8.742;2022-09-30T19:16:39;14.10;99.90
4596;DHT22;2310;49.978;8.742;2022-09-30T19:20:40;13.90;99.90
4596;DHT22;2310;49.978;8.742;2022-09-30T19:24:41;13.80;99.90
4596;DHT22;2310;49.978;8.742;2022-09-30T19:28:42;13.70;99.90
4596;DHT22;2310;49.978;8.742;2022-09-30T19:32:44;13.60;99.90
4596;DHT22;2310;49.978;8.742;2022-09-30T19:36:45;13.50;99.90
4596;DHT22;2310;49.978;8.742;2022-09-30T19:40:55;13.40;99.90
4596;DHT22;2310;49.978;8.742;2022-09-30T19:44:57;13.30;99.90
4596;DHT22;2310;49.978;8.742;2022-09-30T19:48:58;13.30;99.90
4596;DHT22;2310;49.978;8.742;2022-09-30T19:52:59;13.20;99.90
4596;DHT22;2310;49.978;8.742;2022-09-30T19:57:00;13.10;99.90
4596;DHT22;2310;49.978;8.742;2022-09-30T20:01:04;13.10;99.90
4596;DHT22;2310;49.978;8.742;2022-09-30T20:05:06;13.00;99.90
4596;DHT22;2310;49.978;8.742;2022-09-30T20:09:07;12.90;99.90
4596;DHT22;2310;49.978;8.742;2022-09-30T20:13:08;12.90;99.90
4596;DHT22;2310;49.978;8.742;2022-09-30T20:17:09;12.90;99.90
4596;DHT22;2310;49.978;8.742;2022-09-30T20:21:14;12.90;99.90
4596;DHT22;2310;49.978;8.742;2022-09-30T20:25:15;12.80;99.90
4596;DHT22;2310;49.978;8.742;2022-09-30T20:29:16;12.70;99.90
4596;DHT22;2310;49.978;8.742;2022-09-30T20:33:20;12.80;99.90
4596;DHT22;2310;49.978;8.742;2022-09-30T20:37:24;12.80;99.90
4596;DHT22;2310;49.978;8.742;2022-09-30T20:41:26;12.80;99.90
4596;DHT22;2310;49.978;8.742;2022-09-30T20:45:28;12.70;99.90
4596;DHT22;2310;49.978;8.742;2022-09-30T20:49:29;12.70;99.90
4596;DHT22;2310;49.978;8.742;2022-09-30T20:53:30;12.80;99.90
4596;DHT22;2310;49.978;8.742;2022-09-30T20:57:31;12.70;99.90
4596;DHT22;2310;49.978;8.742;2022-09-30T21:01:33;12.70;99.90
4596;DHT22;2310;49.978;8.742;2022-09-30T21:05:34;12.60;99.90
4596;DHT22;2310;49.978;8.742;2022-09-30T21:09:35;12.70;99.90
4596;DHT22;2310;49.978;8.742;2022-09-30T21:13:42;12.70;99.90
4596;DHT22;2310;49.978;8.742;2022-09-30T21:17:44;12.70;99.90
4596;DHT22;2310;49.978;8.742;2022-09-30T21:21:45;12.70;99.90
4596;DHT22;2310;49.978;8.742;2022-09-30T21:25:47;12.30;99.90
4596;DHT22;2310;49.978;8.742;2022-09-30T21:29:50;12.20;99.90
4596;DHT22;2310;49.978;8.742;2022-09-30T21:33:56;12.30;99.90
4596;DHT22;2310;49.978;8.742;2022-09-30T21:37:58;12.30;99.90
4596;DHT22;2310;49.978;8.742;2022-09-30T21:41:59;12.50;99.90
4596;DHT22;2310;49.978;8.742;2022-09-30T21:46:02;12.50;99.90
4596;DHT22;2310;49.978;8.742;2022-09-30T21:50:04;12.40;99.90
4596;DHT22;2310;49.978;8.742;2022-09-30T21:54:06;12.50;99.90
4596;DHT22;2310;49.978;8.742;2022-09-30T21:58:09;12.50;99.90
4596;DHT22;2310;49.978;8.742;2022-09-30T22:02:10;12.60;99.90
4596;DHT22;2310;49.978;8.742;2022-09-30T22:06:12;12.70;99.90
4596;DHT22;2310;49.978;8.742;2022-09-30T22:10:13;12.80;99.90
4596;DHT22;2310;49.978;8.742;2022-09-30T22:14:15;12.70;99.90
4596;DHT22;2310;49.978;8.742;2022-09-30T22:18:17;12.80;99.90
4596;DHT22;2310;49.978;8.742;2022-09-30T22:22:19;12.60;99.90
4596;DHT22;2310;49.978;8.742;2022-09-30T22:26:21;12.70;99.90
4596;DHT22;2310;49.978;8.742;2022-09-30T22:30:25;12.60;99.90
4596;DHT22;2310;49.978;8.742;2022-09-30T22:34:27;12.60;99.90
4596;DHT22;2310;49.978;8.742;2022-09-30T22:38:47;12.60;99.90
4596;DHT22;2310;49.978;8.742;2022-09-30T22:42:48;12.50;99.90
4596;DHT22;2310;49.978;8.742;2022-09-30T22:46:51;12.40;99.90
4596;DHT22;2310;49.978;8.742;2022-09-30T22:50:52;12.40;99.90
4596;DHT22;2310;49.978;8.742;2022-09-30T22:54:54;12.30;99.90
4596;DHT22;2310;49.978;8.742;2022-09-30T22:58:55;12.20;99.90
4596;DHT22;2310;49.978;8.742;2022-09-30T23:02:56;12.30;99.90
4596;DHT22;2310;49.978;8.742;2022-09-30T23:06:57;12.20;99.90
4596;DHT22;2310;49.978;8.742;2022-09-30T23:10:59;12.20;99.90
4596;DHT22;2310;49.978;8.742;2022-09-30T23:15:00;12.20;99.90
4596;DHT22;2310;49.978;8.742;2022-09-30T23:19:02;12.20;99.90
4596;DHT22;2310;49.978;8.742;2022-09-30T23:23:03;12.20;99.90
4596;DHT22;2310;49.978;8.742;2022-09-30T23:27:04;12.30;99.90
4596;DHT22;2310;49.978;8.742;2022-09-30T23:31:14;12.30;99.90
4596;DHT22;2310;49.978;8.742;2022-09-30T23:35:10;12.30;99.90
4596;DHT22;2310;49.978;8.742;2022-09-30T23:39:15;12.20;99.90
4596;DHT22;2310;49.978;8.742;2022-09-30T23:43:20;12.10;99.90
4596;DHT22;2310;49.978;8.742;2022-09-30T23:47:22;12.10;99.90
4596;DHT22;2310;49.978;8.742;2022-09-30T23:51:23;12.10;99.90
4596;DHT22;2310;49.978;8.742;2022-09-30T23:55:25;12.20;99.90
4596;DHT22;2310;49.978;8.742;2022-09-30T23:59:28;12.30;99.90
